sensor_id;sensor_type;location;lat;lon;timestamp;P1;durP1;ratioP1;P2;durP2;ratioP2
39454;SDS011;25155;41.890;23.446;2022-10-16T00:01:23;4.90;;;3.40;;
39454;SDS011;25155;41.890;23.446;2022-10-16T00:03:52;5.93;;;4.07;;
39454;SDS011;25155;41.890;23.446;2022-10-16T00:06:20;5.93;;;3.75;;
39454;SDS011;25155;41.890;23.446;2022-10-16T00:08:48;4.70;;;3.42;;
39454;SDS011;25155;41.890;23.446;2022-10-16T00:11:18;4.47;;;3.25;;
39454;SDS011;25155;41.890;23.446;2022-10-16T00:13:47;4.60;;;3.15;;
39454;SDS011;25155;41.890;23.446;2022-10-16T00:16:18;4.10;;;2.70;;
39454;SDS011;25155;41.890;23.446;2022-10-16T00:18:45;4.30;;;3.00;;
39454;SDS011;25155;41.890;23.446;2022-10-16T00:21:13;5.25;;;3.53;;
39454;SDS011;25155;41.890;23.446;2022-10-16T00:23:42;3.83;;;2.63;;
39454;SDS011;25155;41.890;23.446;2022-10-16T00:26:12;6.88;;;5.13;;
39454;SDS011;25155;41.890;23.446;2022-10-16T00:28:40;5.60;;;4.13;;
39454;SDS011;25155;41.890;23.446;2022-10-16T00:31:09;5.10;;;3.55;;
39454;SDS011;25155;41.890;23.446;2022-10-16T00:33:39;4.70;;;3.38;;
39454;SDS011;25155;41.890;23.446;2022-10-16T00:36:07;4.53;;;2.97;;
39454;SDS011;25155;41.890;23.446;2022-10-16T00:38:37;4.40;;;2.90;;
39454;SDS011;25155;41.890;23.446;2022-10-16T00:41:05;3.85;;;2.67;;
39454;SDS011;25155;41.890;23.446;2022-10-16T00:43:34;4.28;;;3.00;;
39454;SDS011;25155;41.890;23.446;2022-10-16T00:46:05;4.68;;;3.20;;
39454;SDS011;25155;41.890;23.446;2022-10-16T00:48:44;5.85;;;4.05;;
39454;SDS011;25155;41.890;23.446;2022-10-16T00:51:15;9.23;;;7.10;;
39454;SDS011;25155;41.890;23.446;2022-10-16T00:53:44;12.77;;;6.90;;
39454;SDS011;25155;41.890;23.446;2022-10-16T00:56:11;7.93;;;6.40;;
39454;SDS011;25155;41.890;23.446;2022-10-16T00:58:39;8.35;;;6.65;;
39454;SDS011;25155;41.890;23.446;2022-10-16T01:01:07;12.80;;;10.60;;
39454;SDS011;25155;41.890;23.446;2022-10-16T01:03:35;10.82;;;8.80;;
39454;SDS011;25155;41.890;23.446;2022-10-16T01:06:11;8.63;;;6.80;;
39454;SDS011;25155;41.890;23.446;2022-10-16T01:08:52;7.60;;;5.65;;
39454;SDS011;25155;41.890;23.446;2022-10-16T01:11:30;8.82;;;5.85;;
39454;SDS011;25155;41.890;23.446;2022-10-16T01:14:02;7.38;;;6.20;;
39454;SDS011;25155;41.890;23.446;2022-10-16T01:16:38;7.97;;;5.93;;
39454;SDS011;25155;41.890;23.446;2022-10-16T01:19:12;6.32;;;4.80;;
39454;SDS011;25155;41.890;23.446;2022-10-16T01:21:44;6.25;;;4.40;;
39454;SDS011;25155;41.890;23.446;2022-10-16T01:24:17;6.88;;;4.55;;
39454;SDS011;25155;41.890;23.446;2022-10-16T01:27:02;6.57;;;4.32;;
39454;SDS011;25155;41.890;23.446;2022-10-16T01:29:35;7.50;;;5.07;;
39454;SDS011;25155;41.890;23.446;2022-10-16T01:32:09;8.05;;;5.40;;
39454;SDS011;25155;41.890;23.446;2022-10-16T01:34:42;6.68;;;4.95;;
39454;SDS011;25155;41.890;23.446;2022-10-16T01:37:16;7.93;;;5.85;;
39454;SDS011;25155;41.890;23.446;2022-10-16T01:39:49;8.05;;;6.00;;
39454;SDS011;25155;41.890;23.446;2022-10-16T01:42:22;7.93;;;5.85;;
39454;SDS011;25155;41.890;23.446;2022-10-16T01:44:53;6.57;;;4.93;;
39454;SDS011;25155;41.890;23.446;2022-10-16T01:47:23;7.35;;;5.65;;
39454;SDS011;25155;41.890;23.446;2022-10-16T01:49:53;9.50;;;7.90;;
39454;SDS011;25155;41.890;23.446;2022-10-16T01:52:23;10.25;;;8.95;;
39454;SDS011;25155;41.890;23.446;2022-10-16T01:54:53;9.85;;;8.30;;
39454;SDS011;25155;41.890;23.446;2022-10-16T01:57:25;13.95;;;11.77;;
39454;SDS011;25155;41.890;23.446;2022-10-16T01:59:54;11.13;;;9.60;;
39454;SDS011;25155;41.890;23.446;2022-10-16T02:02:28;11.93;;;9.88;;
39454;SDS011;25155;41.890;23.446;2022-10-16T02:04:58;10.70;;;8.80;;
39454;SDS011;25155;41.890;23.446;2022-10-16T02:07:32;10.02;;;8.15;;
39454;SDS011;25155;41.890;23.446;2022-10-16T02:09:59;10.25;;;7.95;;
39454;SDS011;25155;41.890;23.446;2022-10-16T02:12:29;9.55;;;7.70;;
39454;SDS011;25155;41.890;23.446;2022-10-16T02:14:59;10.45;;;8.63;;
39454;SDS011;25155;41.890;23.446;2022-10-16T02:17:27;11.40;;;9.13;;
39454;SDS011;25155;41.890;23.446;2022-10-16T02:19:55;11.65;;;9.25;;
39454;SDS011;25155;41.890;23.446;2022-10-16T02:22:25;11.95;;;9.98;;
39454;SDS011;25155;41.890;23.446;2022-10-16T02:24:57;11.93;;;9.85;;
39454;SDS011;25155;41.890;23.446;2022-10-16T02:27:32;10.68;;;8.68;;
39454;SDS011;25155;41.890;23.446;2022-10-16T02:30:06;9.90;;;8.02;;
39454;SDS011;25155;41.890;23.446;2022-10-16T02:32:38;8.80;;;6.95;;
39454;SDS011;25155;41.890;23.446;2022-10-16T02:35:09;10.30;;;7.72;;
39454;SDS011;25155;41.890;23.446;2022-10-16T02:37:39;11.50;;;8.25;;
39454;SDS011;25155;41.890;23.446;2022-10-16T02:40:08;12.18;;;9.65;;
39454;SDS011;25155;41.890;23.446;2022-10-16T02:42:39;9.98;;;8.27;;
39454;SDS011;25155;41.890;23.446;2022-10-16T02:45:08;13.15;;;10.68;;
39454;SDS011;25155;41.890;23.446;2022-10-16T02:47:37;11.48;;;9.18;;
39454;SDS011;25155;41.890;23.446;2022-10-16T02:50:04;9.57;;;7.75;;
39454;SDS011;25155;41.890;23.446;2022-10-16T02:52:32;10.18;;;7.88;;
39454;SDS011;25155;41.890;23.446;2022-10-16T02:55:00;10.00;;;7.18;;
39454;SDS011;25155;41.890;23.446;2022-10-16T02:57:27;7.70;;;5.13;;
39454;SDS011;25155;41.890;23.446;2022-10-16T02:59:55;6.43;;;4.53;;
39454;SDS011;25155;41.890;23.446;2022-10-16T03:02:23;6.28;;;4.28;;
39454;SDS011;25155;41.890;23.446;2022-10-16T03:04:50;6.07;;;4.28;;
39454;SDS011;25155;41.890;23.446;2022-10-16T03:07:17;5.32;;;3.63;;
39454;SDS011;25155;41.890;23.446;2022-10-16T03:09:45;5.28;;;4.10;;
39454;SDS011;25155;41.890;23.446;2022-10-16T03:12:12;6.25;;;4.40;;
39454;SDS011;25155;41.890;23.446;2022-10-16T03:14:40;5.80;;;4.38;;
39454;SDS011;25155;41.890;23.446;2022-10-16T03:17:08;8.00;;;5.65;;
39454;SDS011;25155;41.890;23.446;2022-10-16T03:19:35;7.07;;;5.35;;
39454;SDS011;25155;41.890;23.446;2022-10-16T03:22:03;6.38;;;4.68;;
39454;SDS011;25155;41.890;23.446;2022-10-16T03:24:30;8.30;;;5.57;;
39454;SDS011;25155;41.890;23.446;2022-10-16T03:26:57;13.48;;;9.30;;
39454;SDS011;25155;41.890;23.446;2022-10-16T03:29:25;10.98;;;8.20;;
39454;SDS011;25155;41.890;23.446;2022-10-16T03:31:54;8.63;;;6.82;;
39454;SDS011;25155;41.890;23.446;2022-10-16T03:34:23;8.25;;;6.57;;
39454;SDS011;25155;41.890;23.446;2022-10-16T03:36:51;6.97;;;5.57;;
39454;SDS011;25155;41.890;23.446;2022-10-16T03:39:19;6.45;;;4.78;;
39454;SDS011;25155;41.890;23.446;2022-10-16T03:41:46;7.03;;;5.55;;
39454;SDS011;25155;41.890;23.446;2022-10-16T03:44:13;7.80;;;5.78;;
39454;SDS011;25155;41.890;23.446;2022-10-16T03:46:41;7.80;;;5.18;;
39454;SDS011;25155;41.890;23.446;2022-10-16T03:49:08;6.72;;;4.85;;
39454;SDS011;25155;41.890;23.446;2022-10-16T03:51:37;6.38;;;4.75;;
39454;SDS011;25155;41.890;23.446;2022-10-16T03:54:07;5.97;;;4.28;;
39454;SDS011;25155;41.890;23.446;2022-10-16T03:56:34;5.93;;;3.90;;
39454;SDS011;25155;41.890;23.446;2022-10-16T03:59:04;5.60;;;4.20;;
39454;SDS011;25155;41.890;23.446;2022-10-16T04:01:31;5.63;;;4.25;;
39454;SDS011;25155;41.890;23.446;2022-10-16T04:03:59;5.65;;;4.10;;
39454;SDS011;25155;41.890;23.446;2022-10-16T04:06:26;5.68;;;4.15;;
39454;SDS011;25155;41.890;23.446;2022-10-16T04:08:55;5.82;;;4.18;;
39454;SDS011;25155;41.890;23.446;2022-10-16T04:11:22;7.32;;;5.55;;
39454;SDS011;25155;41.890;23.446;2022-10-16T04:13:49;8.98;;;5.75;;
39454;SDS011;25155;41.890;23.446;2022-10-16T04:16:16;6.60;;;5.30;;
39454;SDS011;25155;41.890;23.446;2022-10-16T04:18:44;6.35;;;5.03;;
39454;SDS011;25155;41.890;23.446;2022-10-16T04:21:11;6.57;;;4.70;;
39454;SDS011;25155;41.890;23.446;2022-10-16T04:23:38;6.13;;;4.80;;
39454;SDS011;25155;41.890;23.446;2022-10-16T04:26:07;7.45;;;5.90;;
39454;SDS011;25155;41.890;23.446;2022-10-16T04:28:35;8.40;;;5.97;;
39454;SDS011;25155;41.890;23.446;2022-10-16T04:31:03;7.82;;;6.05;;
39454;SDS011;25155;41.890;23.446;2022-10-16T04:33:31;7.68;;;5.75;;
39454;SDS011;25155;41.890;23.446;2022-10-16T04:35:58;12.63;;;9.27;;
39454;SDS011;25155;41.890;23.446;2022-10-16T04:38:26;9.80;;;7.70;;
39454;SDS011;25155;41.890;23.446;2022-10-16T04:40:54;9.07;;;6.82;;
39454;SDS011;25155;41.890;23.446;2022-10-16T04:43:23;10.00;;;7.38;;
39454;SDS011;25155;41.890;23.446;2022-10-16T04:45:51;8.48;;;6.72;;
39454;SDS011;25155;41.890;23.446;2022-10-16T04:48:20;10.75;;;7.68;;
39454;SDS011;25155;41.890;23.446;2022-10-16T04:50:47;12.15;;;8.38;;
39454;SDS011;25155;41.890;23.446;2022-10-16T04:53:14;14.05;;;10.43;;
39454;SDS011;25155;41.890;23.446;2022-10-16T04:55:42;16.13;;;11.30;;
39454;SDS011;25155;41.890;23.446;2022-10-16T04:58:09;15.80;;;10.93;;
39454;SDS011;25155;41.890;23.446;2022-10-16T05:00:38;14.35;;;10.45;;
39454;SDS011;25155;41.890;23.446;2022-10-16T05:03:05;15.73;;;10.35;;
39454;SDS011;25155;41.890;23.446;2022-10-16T05:05:34;17.10;;;12.50;;
39454;SDS011;25155;41.890;23.446;2022-10-16T05:08:01;19.15;;;12.70;;
39454;SDS011;25155;41.890;23.446;2022-10-16T05:10:29;17.90;;;11.43;;
39454;SDS011;25155;41.890;23.446;2022-10-16T05:12:56;17.88;;;12.50;;
39454;SDS011;25155;41.890;23.446;2022-10-16T05:15:23;24.85;;;16.13;;
39454;SDS011;25155;41.890;23.446;2022-10-16T05:17:55;24.45;;;18.10;;
39454;SDS011;25155;41.890;23.446;2022-10-16T05:20:23;24.00;;;17.45;;
39454;SDS011;25155;41.890;23.446;2022-10-16T05:22:50;22.50;;;16.42;;
39454;SDS011;25155;41.890;23.446;2022-10-16T05:25:17;23.90;;;16.55;;
39454;SDS011;25155;41.890;23.446;2022-10-16T05:27:46;20.90;;;14.82;;
39454;SDS011;25155;41.890;23.446;2022-10-16T05:30:15;27.83;;;18.92;;
39454;SDS011;25155;41.890;23.446;2022-10-16T05:32:46;24.92;;;17.95;;
39454;SDS011;25155;41.890;23.446;2022-10-16T05:35:16;31.67;;;23.63;;
39454;SDS011;25155;41.890;23.446;2022-10-16T05:37:44;43.33;;;30.30;;
39454;SDS011;25155;41.890;23.446;2022-10-16T05:40:11;41.65;;;28.35;;
39454;SDS011;25155;41.890;23.446;2022-10-16T05:42:39;33.58;;;24.13;;
39454;SDS011;25155;41.890;23.446;2022-10-16T05:45:08;32.30;;;22.45;;
39454;SDS011;25155;41.890;23.446;2022-10-16T05:47:38;41.17;;;28.15;;
39454;SDS011;25155;41.890;23.446;2022-10-16T05:50:06;36.40;;;23.45;;
39454;SDS011;25155;41.890;23.446;2022-10-16T05:52:35;33.25;;;22.38;;
39454;SDS011;25155;41.890;23.446;2022-10-16T05:55:03;35.40;;;23.35;;
39454;SDS011;25155;41.890;23.446;2022-10-16T05:57:31;29.70;;;21.98;;
39454;SDS011;25155;41.890;23.446;2022-10-16T05:59:59;30.33;;;20.23;;
39454;SDS011;25155;41.890;23.446;2022-10-16T06:02:26;20.58;;;15.50;;
39454;SDS011;25155;41.890;23.446;2022-10-16T06:04:53;22.67;;;16.98;;
39454;SDS011;25155;41.890;23.446;2022-10-16T06:07:21;26.52;;;18.48;;
39454;SDS011;25155;41.890;23.446;2022-10-16T06:09:50;20.88;;;15.30;;
39454;SDS011;25155;41.890;23.446;2022-10-16T06:12:17;26.50;;;20.40;;
39454;SDS011;25155;41.890;23.446;2022-10-16T06:14:45;25.60;;;17.90;;
39454;SDS011;25155;41.890;23.446;2022-10-16T06:17:14;28.00;;;21.58;;
39454;SDS011;25155;41.890;23.446;2022-10-16T06:19:41;27.48;;;21.25;;
39454;SDS011;25155;41.890;23.446;2022-10-16T06:22:08;30.67;;;23.63;;
39454;SDS011;25155;41.890;23.446;2022-10-16T06:24:36;27.05;;;21.05;;
39454;SDS011;25155;41.890;23.446;2022-10-16T06:27:04;22.60;;;18.30;;
39454;SDS011;25155;41.890;23.446;2022-10-16T06:29:32;23.75;;;18.23;;
39454;SDS011;25155;41.890;23.446;2022-10-16T06:32:00;25.67;;;20.23;;
39454;SDS011;25155;41.890;23.446;2022-10-16T06:34:27;23.13;;;18.17;;
39454;SDS011;25155;41.890;23.446;2022-10-16T06:36:54;25.58;;;21.13;;
39454;SDS011;25155;41.890;23.446;2022-10-16T06:39:21;39.10;;;31.63;;
39454;SDS011;25155;41.890;23.446;2022-10-16T06:41:49;38.03;;;33.35;;
39454;SDS011;25155;41.890;23.446;2022-10-16T06:44:18;35.83;;;30.10;;
39454;SDS011;25155;41.890;23.446;2022-10-16T06:46:45;35.50;;;28.15;;
39454;SDS011;25155;41.890;23.446;2022-10-16T06:49:12;37.42;;;31.15;;
39454;SDS011;25155;41.890;23.446;2022-10-16T06:51:46;33.90;;;27.92;;
39454;SDS011;25155;41.890;23.446;2022-10-16T06:54:14;32.63;;;25.13;;
39454;SDS011;25155;41.890;23.446;2022-10-16T06:56:41;29.63;;;24.35;;
39454;SDS011;25155;41.890;23.446;2022-10-16T06:59:09;35.80;;;28.95;;
39454;SDS011;25155;41.890;23.446;2022-10-16T07:01:37;42.20;;;35.10;;
39454;SDS011;25155;41.890;23.446;2022-10-16T07:04:05;42.88;;;33.83;;
39454;SDS011;25155;41.890;23.446;2022-10-16T07:06:32;44.80;;;34.80;;
39454;SDS011;25155;41.890;23.446;2022-10-16T07:09:01;32.38;;;27.60;;
39454;SDS011;25155;41.890;23.446;2022-10-16T07:11:33;52.63;;;41.13;;
39454;SDS011;25155;41.890;23.446;2022-10-16T07:14:00;47.38;;;37.40;;
39454;SDS011;25155;41.890;23.446;2022-10-16T07:16:28;43.40;;;33.20;;
39454;SDS011;25155;41.890;23.446;2022-10-16T07:18:58;41.83;;;32.25;;
39454;SDS011;25155;41.890;23.446;2022-10-16T07:21:27;41.83;;;33.97;;
39454;SDS011;25155;41.890;23.446;2022-10-16T07:23:56;38.60;;;30.88;;
39454;SDS011;25155;41.890;23.446;2022-10-16T07:26:26;33.20;;;27.52;;
39454;SDS011;25155;41.890;23.446;2022-10-16T07:28:55;34.90;;;26.52;;
39454;SDS011;25155;41.890;23.446;2022-10-16T07:31:24;33.22;;;25.10;;
39454;SDS011;25155;41.890;23.446;2022-10-16T07:33:52;28.63;;;22.48;;
39454;SDS011;25155;41.890;23.446;2022-10-16T07:36:21;33.78;;;27.20;;
39454;SDS011;25155;41.890;23.446;2022-10-16T07:38:48;34.10;;;27.30;;
39454;SDS011;25155;41.890;23.446;2022-10-16T07:41:16;32.35;;;25.15;;
39454;SDS011;25155;41.890;23.446;2022-10-16T07:43:45;26.42;;;21.83;;
39454;SDS011;25155;41.890;23.446;2022-10-16T07:46:12;26.38;;;19.45;;
39454;SDS011;25155;41.890;23.446;2022-10-16T07:48:40;25.33;;;20.88;;
39454;SDS011;25155;41.890;23.446;2022-10-16T07:51:11;20.13;;;16.50;;
39454;SDS011;25155;41.890;23.446;2022-10-16T07:53:40;25.25;;;20.40;;
39454;SDS011;25155;41.890;23.446;2022-10-16T07:56:08;25.10;;;20.13;;
39454;SDS011;25155;41.890;23.446;2022-10-16T07:58:35;20.45;;;17.00;;
39454;SDS011;25155;41.890;23.446;2022-10-16T08:01:03;17.38;;;14.55;;
39454;SDS011;25155;41.890;23.446;2022-10-16T08:03:33;19.73;;;15.15;;
39454;SDS011;25155;41.890;23.446;2022-10-16T08:06:00;15.13;;;12.07;;
39454;SDS011;25155;41.890;23.446;2022-10-16T08:08:29;15.55;;;11.18;;
39454;SDS011;25155;41.890;23.446;2022-10-16T08:10:58;15.10;;;12.70;;
39454;SDS011;25155;41.890;23.446;2022-10-16T08:13:28;18.70;;;14.70;;
39454;SDS011;25155;41.890;23.446;2022-10-16T08:15:56;14.95;;;11.00;;
39454;SDS011;25155;41.890;23.446;2022-10-16T08:18:23;15.43;;;11.63;;
39454;SDS011;25155;41.890;23.446;2022-10-16T08:20:55;11.88;;;9.23;;
39454;SDS011;25155;41.890;23.446;2022-10-16T08:23:23;13.00;;;9.02;;
39454;SDS011;25155;41.890;23.446;2022-10-16T08:25:51;12.32;;;9.43;;
39454;SDS011;25155;41.890;23.446;2022-10-16T08:28:21;10.13;;;7.65;;
39454;SDS011;25155;41.890;23.446;2022-10-16T08:30:48;8.07;;;6.85;;
39454;SDS011;25155;41.890;23.446;2022-10-16T08:33:16;12.40;;;8.73;;
39454;SDS011;25155;41.890;23.446;2022-10-16T08:35:43;9.48;;;7.32;;
39454;SDS011;25155;41.890;23.446;2022-10-16T08:38:18;13.70;;;9.90;;
39454;SDS011;25155;41.890;23.446;2022-10-16T08:40:46;12.25;;;8.93;;
39454;SDS011;25155;41.890;23.446;2022-10-16T08:43:21;12.10;;;8.18;;
39454;SDS011;25155;41.890;23.446;2022-10-16T08:46:15;11.85;;;7.63;;
39454;SDS011;25155;41.890;23.446;2022-10-16T08:48:54;10.18;;;8.48;;
39454;SDS011;25155;41.890;23.446;2022-10-16T08:51:24;11.43;;;8.88;;
39454;SDS011;25155;41.890;23.446;2022-10-16T08:53:56;8.80;;;7.50;;
39454;SDS011;25155;41.890;23.446;2022-10-16T08:56:25;9.45;;;8.02;;
39454;SDS011;25155;41.890;23.446;2022-10-16T08:58:55;10.40;;;8.40;;
39454;SDS011;25155;41.890;23.446;2022-10-16T09:01:25;7.72;;;5.93;;
39454;SDS011;25155;41.890;23.446;2022-10-16T09:04:07;10.20;;;6.88;;
39454;SDS011;25155;41.890;23.446;2022-10-16T09:07:00;8.93;;;6.45;;
39454;SDS011;25155;41.890;23.446;2022-10-16T09:09:38;7.63;;;5.50;;
39454;SDS011;25155;41.890;23.446;2022-10-16T09:12:19;5.80;;;4.55;;
39454;SDS011;25155;41.890;23.446;2022-10-16T09:14:56;6.35;;;4.53;;
39454;SDS011;25155;41.890;23.446;2022-10-16T09:17:41;6.55;;;4.32;;
39454;SDS011;25155;41.890;23.446;2022-10-16T09:20:18;6.00;;;4.38;;
39454;SDS011;25155;41.890;23.446;2022-10-16T09:22:53;5.57;;;3.97;;
39454;SDS011;25155;41.890;23.446;2022-10-16T09:25:27;5.15;;;3.50;;
39454;SDS011;25155;41.890;23.446;2022-10-16T09:27:55;5.03;;;3.70;;
39454;SDS011;25155;41.890;23.446;2022-10-16T09:30:26;6.03;;;3.40;;
39454;SDS011;25155;41.890;23.446;2022-10-16T09:32:54;4.78;;;3.75;;
39454;SDS011;25155;41.890;23.446;2022-10-16T09:35:26;5.55;;;3.97;;
39454;SDS011;25155;41.890;23.446;2022-10-16T09:37:59;5.75;;;3.83;;
39454;SDS011;25155;41.890;23.446;2022-10-16T09:40:28;5.93;;;4.00;;
39454;SDS011;25155;41.890;23.446;2022-10-16T09:42:57;6.13;;;4.00;;
39454;SDS011;25155;41.890;23.446;2022-10-16T09:45:31;5.40;;;4.03;;
39454;SDS011;25155;41.890;23.446;2022-10-16T09:48:01;6.45;;;3.97;;
39454;SDS011;25155;41.890;23.446;2022-10-16T09:50:37;5.20;;;3.60;;
39454;SDS011;25155;41.890;23.446;2022-10-16T09:53:06;4.28;;;3.10;;
39454;SDS011;25155;41.890;23.446;2022-10-16T09:55:47;6.82;;;4.05;;
39454;SDS011;25155;41.890;23.446;2022-10-16T09:58:16;5.30;;;4.00;;
39454;SDS011;25155;41.890;23.446;2022-10-16T10:00:50;6.28;;;4.20;;
39454;SDS011;25155;41.890;23.446;2022-10-16T10:03:26;7.53;;;4.43;;
39454;SDS011;25155;41.890;23.446;2022-10-16T10:08:32;4.47;;;3.05;;
39454;SDS011;25155;41.890;23.446;2022-10-16T10:10:59;5.65;;;3.72;;
39454;SDS011;25155;41.890;23.446;2022-10-16T10:13:26;5.93;;;4.13;;
39454;SDS011;25155;41.890;23.446;2022-10-16T10:15:55;5.90;;;3.75;;
39454;SDS011;25155;41.890;23.446;2022-10-16T10:18:22;5.18;;;4.00;;
39454;SDS011;25155;41.890;23.446;2022-10-16T10:20:57;5.72;;;3.58;;
39454;SDS011;25155;41.890;23.446;2022-10-16T10:23:26;6.25;;;3.67;;
39454;SDS011;25155;41.890;23.446;2022-10-16T10:25:57;5.45;;;4.05;;
39454;SDS011;25155;41.890;23.446;2022-10-16T10:31:29;4.55;;;3.30;;
39454;SDS011;25155;41.890;23.446;2022-10-16T10:34:04;5.57;;;3.78;;
39454;SDS011;25155;41.890;23.446;2022-10-16T10:36:48;4.97;;;3.63;;
39454;SDS011;25155;41.890;23.446;2022-10-16T10:39:24;5.38;;;3.47;;
39454;SDS011;25155;41.890;23.446;2022-10-16T10:42:00;5.82;;;3.80;;
39454;SDS011;25155;41.890;23.446;2022-10-16T10:47:51;5.13;;;3.30;;
39454;SDS011;25155;41.890;23.446;2022-10-16T10:50:26;4.72;;;3.50;;
39454;SDS011;25155;41.890;23.446;2022-10-16T10:53:05;5.30;;;3.65;;
39454;SDS011;25155;41.890;23.446;2022-10-16T10:55:43;5.53;;;3.75;;
39454;SDS011;25155;41.890;23.446;2022-10-16T11:01:07;6.43;;;4.35;;
39454;SDS011;25155;41.890;23.446;2022-10-16T11:06:35;7.05;;;4.00;;
39454;SDS011;25155;41.890;23.446;2022-10-16T11:09:09;5.45;;;3.92;;
39454;SDS011;25155;41.890;23.446;2022-10-16T11:11:41;5.13;;;3.75;;
39454;SDS011;25155;41.890;23.446;2022-10-16T11:14:14;6.22;;;4.03;;
39454;SDS011;25155;41.890;23.446;2022-10-16T11:16:47;5.57;;;3.90;;
39454;SDS011;25155;41.890;23.446;2022-10-16T11:19:25;4.93;;;3.85;;
39454;SDS011;25155;41.890;23.446;2022-10-16T11:22:03;5.10;;;3.90;;
39454;SDS011;25155;41.890;23.446;2022-10-16T11:24:37;6.53;;;4.50;;
39454;SDS011;25155;41.890;23.446;2022-10-16T11:27:14;7.03;;;4.75;;
39454;SDS011;25155;41.890;23.446;2022-10-16T11:29:44;5.65;;;4.32;;
39454;SDS011;25155;41.890;23.446;2022-10-16T11:32:20;5.10;;;3.70;;
39454;SDS011;25155;41.890;23.446;2022-10-16T11:34:53;5.13;;;3.30;;
39454;SDS011;25155;41.890;23.446;2022-10-16T11:37:27;5.00;;;3.50;;
39454;SDS011;25155;41.890;23.446;2022-10-16T11:40:03;6.18;;;3.80;;
39454;SDS011;25155;41.890;23.446;2022-10-16T11:42:44;5.32;;;3.45;;
39454;SDS011;25155;41.890;23.446;2022-10-16T11:45:22;5.78;;;3.80;;
39454;SDS011;25155;41.890;23.446;2022-10-16T11:47:58;5.20;;;3.45;;
39454;SDS011;25155;41.890;23.446;2022-10-16T11:50:31;5.40;;;3.75;;
39454;SDS011;25155;41.890;23.446;2022-10-16T11:53:04;6.70;;;3.75;;
39454;SDS011;25155;41.890;23.446;2022-10-16T11:55:40;5.32;;;3.30;;
39454;SDS011;25155;41.890;23.446;2022-10-16T11:58:12;5.22;;;3.60;;
39454;SDS011;25155;41.890;23.446;2022-10-16T12:00:51;4.68;;;3.47;;
39454;SDS011;25155;41.890;23.446;2022-10-16T12:03:27;5.00;;;3.63;;
39454;SDS011;25155;41.890;23.446;2022-10-16T12:06:13;5.05;;;3.70;;
39454;SDS011;25155;41.890;23.446;2022-10-16T12:08:50;5.47;;;3.60;;
39454;SDS011;25155;41.890;23.446;2022-10-16T12:11:22;5.13;;;3.60;;
39454;SDS011;25155;41.890;23.446;2022-10-16T12:14:04;4.50;;;3.60;;
39454;SDS011;25155;41.890;23.446;2022-10-16T12:16:33;4.82;;;3.30;;
39454;SDS011;25155;41.890;23.446;2022-10-16T12:19:10;6.85;;;3.50;;
39454;SDS011;25155;41.890;23.446;2022-10-16T12:21:40;5.88;;;3.53;;
39454;SDS011;25155;41.890;23.446;2022-10-16T12:24:19;5.63;;;3.70;;
39454;SDS011;25155;41.890;23.446;2022-10-16T12:26:50;5.22;;;3.33;;
39454;SDS011;25155;41.890;23.446;2022-10-16T12:29:22;4.28;;;3.17;;
39454;SDS011;25155;41.890;23.446;2022-10-16T12:31:55;4.22;;;3.00;;
39454;SDS011;25155;41.890;23.446;2022-10-16T12:34:23;4.47;;;3.22;;
39454;SDS011;25155;41.890;23.446;2022-10-16T12:37:06;4.50;;;3.17;;
39454;SDS011;25155;41.890;23.446;2022-10-16T12:39:36;4.15;;;2.83;;
39454;SDS011;25155;41.890;23.446;2022-10-16T12:42:04;4.13;;;2.80;;
39454;SDS011;25155;41.890;23.446;2022-10-16T12:44:46;4.00;;;2.88;;
39454;SDS011;25155;41.890;23.446;2022-10-16T12:47:19;4.22;;;2.85;;
39454;SDS011;25155;41.890;23.446;2022-10-16T12:49:48;4.60;;;2.72;;
39454;SDS011;25155;41.890;23.446;2022-10-16T12:52:26;3.90;;;2.60;;
39454;SDS011;25155;41.890;23.446;2022-10-16T12:55:02;3.90;;;2.63;;
39454;SDS011;25155;41.890;23.446;2022-10-16T12:57:35;4.10;;;2.83;;
39454;SDS011;25155;41.890;23.446;2022-10-16T13:00:18;3.90;;;2.50;;
39454;SDS011;25155;41.890;23.446;2022-10-16T13:02:55;3.80;;;2.53;;
39454;SDS011;25155;41.890;23.446;2022-10-16T13:05:46;4.75;;;2.90;;
39454;SDS011;25155;41.890;23.446;2022-10-16T13:08:32;4.35;;;2.80;;
39454;SDS011;25155;41.890;23.446;2022-10-16T13:11:19;4.47;;;3.03;;
39454;SDS011;25155;41.890;23.446;2022-10-16T13:13:56;4.35;;;3.00;;
39454;SDS011;25155;41.890;23.446;2022-10-16T13:16:49;4.43;;;2.90;;
39454;SDS011;25155;41.890;23.446;2022-10-16T13:19:28;4.65;;;2.80;;
39454;SDS011;25155;41.890;23.446;2022-10-16T13:22:03;4.32;;;2.90;;
39454;SDS011;25155;41.890;23.446;2022-10-16T13:24:43;4.57;;;2.92;;
39454;SDS011;25155;41.890;23.446;2022-10-16T13:27:23;4.68;;;2.80;;
39454;SDS011;25155;41.890;23.446;2022-10-16T13:30:00;4.35;;;2.60;;
39454;SDS011;25155;41.890;23.446;2022-10-16T13:32:35;4.18;;;2.72;;
39454;SDS011;25155;41.890;23.446;2022-10-16T13:35:03;4.28;;;2.63;;
39454;SDS011;25155;41.890;23.446;2022-10-16T13:37:46;4.32;;;2.60;;
39454;SDS011;25155;41.890;23.446;2022-10-16T13:40:20;6.55;;;3.45;;
39454;SDS011;25155;41.890;23.446;2022-10-16T13:42:49;4.30;;;2.70;;
39454;SDS011;25155;41.890;23.446;2022-10-16T13:45:18;5.60;;;2.75;;
39454;SDS011;25155;41.890;23.446;2022-10-16T13:47:46;3.40;;;2.40;;
39454;SDS011;25155;41.890;23.446;2022-10-16T13:50:15;4.00;;;2.60;;
39454;SDS011;25155;41.890;23.446;2022-10-16T13:52:43;5.13;;;2.88;;
39454;SDS011;25155;41.890;23.446;2022-10-16T13:55:11;4.78;;;2.65;;
39454;SDS011;25155;41.890;23.446;2022-10-16T13:57:41;4.50;;;2.55;;
39454;SDS011;25155;41.890;23.446;2022-10-16T14:00:18;4.47;;;2.80;;
39454;SDS011;25155;41.890;23.446;2022-10-16T14:02:50;4.75;;;2.88;;
39454;SDS011;25155;41.890;23.446;2022-10-16T14:05:22;4.20;;;2.75;;
39454;SDS011;25155;41.890;23.446;2022-10-16T14:07:50;4.35;;;3.03;;
39454;SDS011;25155;41.890;23.446;2022-10-16T14:10:20;4.75;;;2.83;;
39454;SDS011;25155;41.890;23.446;2022-10-16T14:13:00;4.63;;;2.90;;
39454;SDS011;25155;41.890;23.446;2022-10-16T14:15:30;3.60;;;2.55;;
39454;SDS011;25155;41.890;23.446;2022-10-16T14:17:58;3.80;;;2.58;;
39454;SDS011;25155;41.890;23.446;2022-10-16T14:20:27;5.75;;;3.20;;
39454;SDS011;25155;41.890;23.446;2022-10-16T14:22:58;5.53;;;3.20;;
39454;SDS011;25155;41.890;23.446;2022-10-16T14:25:28;4.80;;;3.00;;
39454;SDS011;25155;41.890;23.446;2022-10-16T14:27:57;6.50;;;3.28;;
39454;SDS011;25155;41.890;23.446;2022-10-16T14:30:28;4.03;;;2.47;;
39454;SDS011;25155;41.890;23.446;2022-10-16T14:32:57;4.63;;;2.70;;
39454;SDS011;25155;41.890;23.446;2022-10-16T14:35:28;4.03;;;2.60;;
39454;SDS011;25155;41.890;23.446;2022-10-16T14:37:58;4.63;;;3.05;;
39454;SDS011;25155;41.890;23.446;2022-10-16T14:40:28;4.30;;;2.70;;
39454;SDS011;25155;41.890;23.446;2022-10-16T14:42:57;3.50;;;2.13;;
39454;SDS011;25155;41.890;23.446;2022-10-16T14:45:28;4.13;;;2.60;;
39454;SDS011;25155;41.890;23.446;2022-10-16T14:47:58;2.85;;;2.13;;
39454;SDS011;25155;41.890;23.446;2022-10-16T14:50:28;2.72;;;2.10;;
39454;SDS011;25155;41.890;23.446;2022-10-16T14:52:55;3.78;;;2.40;;
39454;SDS011;25155;41.890;23.446;2022-10-16T14:55:22;4.07;;;2.10;;
39454;SDS011;25155;41.890;23.446;2022-10-16T14:57:51;3.35;;;2.10;;
39454;SDS011;25155;41.890;23.446;2022-10-16T15:00:20;3.20;;;1.85;;
39454;SDS011;25155;41.890;23.446;2022-10-16T15:02:50;2.60;;;1.77;;